Time;durP1;ratioP1;P1;durP2;ratioP2;P2;SDS_P1;SDS_P2;PMS_P1;PMS_P2;Temp;Humidity;BMP_temperature;BMP_pressure;BME280_temperature;BME280_humidity;BME280_pressure;Samples;Min_cycle;Max_cycle;Signal;HPM_P1;HPM_P2
2022/07/04 00:02:04;;;;;;;5.40;2.92;;;;;;;21.35;52.70;100268.75;5086585;28;20510;-36
2022/07/04 00:04:30;;;;;;;6.50;2.83;;;;;;;21.13;52.12;100252.94;5086304;28;20476;-31
2022/07/04 00:06:55;;;;;;;5.10;2.70;;;;;;;21.10;52.34;100261.63;5085975;28;20110;-33
2022/07/04 00:09:21;;;;;;;5.53;3.10;;;;;;;21.10;52.77;100261.63;5086625;28;20080;-30
2022/07/04 00:11:46;;;;;;;5.68;2.67;;;;;;;21.15;52.59;100272.44;5086552;28;20062;-28
2022/07/04 00:14:12;;;;;;;4.97;2.97;;;;;;;21.02;52.86;100259.53;5086545;28;20031;-29
2022/07/04 00:16:37;;;;;;;6.10;2.97;;;;;;;21.03;53.00;100270.09;5086369;28;20024;-27
2022/07/04 00:19:03;;;;;;;6.22;3.03;;;;;;;20.48;54.85;100262.03;5086440;28;20032;-27
2022/07/04 00:21:28;;;;;;;6.43;2.58;;;;;;;20.46;55.45;100258.81;5067835;28;20024;-27
2022/07/04 00:23:53;;;;;;;7.13;2.67;;;;;;;20.50;56.23;100269.09;5089279;28;20430;-30
2022/07/04 00:26:19;;;;;;;6.00;2.95;;;;;;;21.14;54.34;100251.03;5090800;28;20473;-28
2022/07/04 00:28:44;;;;;;;8.20;3.42;;;;;;;21.33;53.67;100253.84;5090541;28;20084;-30
2022/07/04 00:31:10;;;;;;;4.97;2.63;;;;;;;21.02;54.43;100249.50;5090793;28;20020;-29
2022/07/04 00:33:35;;;;;;;5.60;2.72;;;;;;;21.09;55.02;100260.03;5090331;28;20043;-28
2022/07/04 00:36:01;;;;;;;5.10;2.70;;;;;;;21.22;55.14;100266.69;5090384;28;20095;-29
2022/07/04 00:38:26;;;;;;;5.63;3.35;;;;;;;20.85;55.37;100249.09;5090326;28;20465;-27
2022/07/04 00:40:52;;;;;;;6.57;3.13;;;;;;;21.00;55.69;100265.25;5089953;28;20056;-27
2022/07/04 00:43:25;;;;;;;7.28;3.33;;;;;;;20.83;55.75;100230.41;5090408;28;20026;-29
2022/07/04 00:45:51;;;;;;;4.93;3.03;;;;;;;20.68;55.44;100238.66;5071788;28;20024;-33
2022/07/04 00:48:17;;;;;;;5.85;2.95;;;;;;;20.40;55.98;100240.16;5090267;28;20024;-27
2022/07/04 00:50:47;;;;;;;6.47;3.13;;;;;;;20.77;56.09;100252.41;5089925;28;20036;-27
2022/07/04 00:53:18;;;;;;;7.45;3.40;;;;;;;20.91;55.27;100247.16;5071876;28;20028;-28
2022/07/04 00:55:45;;;;;;;6.18;2.85;;;;;;;20.79;55.77;100245.59;5071700;28;20085;-27
2022/07/04 00:58:13;;;;;;;5.60;2.90;;;;;;;20.48;56.83;100229.53;5071563;28;20502;-30
2022/07/04 01:00:38;;;;;;;7.47;3.17;;;;;;;19.96;59.71;100244.44;5071377;28;20035;-28
2022/07/04 01:03:04;;;;;;;5.72;3.20;;;;;;;19.22;61.76;100225.09;5089830;28;20020;-31
2022/07/04 01:05:29;;;;;;;6.43;3.20;;;;;;;19.30;62.72;100239.19;5071249;28;20034;-27
2022/07/04 01:07:56;;;;;;;6.05;3.15;;;;;;;19.42;62.44;100235.09;5089830;28;20052;-27
2022/07/04 01:10:22;;;;;;;5.90;3.03;;;;;;;19.84;61.08;100241.25;5071174;28;20488;-29
2022/07/04 01:12:47;;;;;;;5.55;2.90;;;;;;;19.81;60.66;100220.13;5089294;28;20032;-27
2022/07/04 01:15:13;;;;;;;7.65;3.25;;;;;;;19.73;62.08;100234.25;5089370;28;20034;-29
2022/07/04 01:17:38;;;;;;;9.35;3.22;;;;;;;19.87;61.78;100241.47;5088868;28;20036;-28
2022/07/04 01:20:04;;;;;;;11.65;3.78;;;;;;;20.01;60.85;100228.16;5088962;28;20476;-27
2022/07/04 01:22:30;;;;;;;12.50;3.25;;;;;;;20.12;60.31;100237.03;5070712;28;20059;-28
2022/07/04 01:24:55;;;;;;;6.15;2.70;;;;;;;20.41;58.63;100231.75;5088982;28;20180;-28
2022/07/04 01:27:21;;;;;;;4.28;2.97;;;;;;;20.49;57.04;100219.50;5088847;28;20032;-29
2022/07/04 01:29:46;;;;;;;6.20;3.38;;;;;;;20.47;57.88;100233.34;5089154;28;20036;-27
2022/07/04 01:32:12;;;;;;;5.10;2.80;;;;;;;20.06;59.21;100211.91;5088910;28;20020;-28
2022/07/04 01:34:38;;;;;;;5.93;3.05;;;;;;;18.91;64.34;100234.34;5088965;28;20127;-28
2022/07/04 01:37:04;;;;;;;5.40;2.80;;;;;;;18.23;67.15;100222.59;5070874;28;20476;-28
2022/07/04 01:39:29;;;;;;;5.88;2.90;;;;;;;18.42;66.48;100228.28;5088829;28;20119;-27
2022/07/04 01:41:55;;;;;;;6.88;3.65;;;;;;;18.52;66.67;100229.41;5088941;28;20139;-28
2022/07/04 01:44:21;;;;;;;4.85;2.85;;;;;;;19.17;64.39;100225.13;5088734;28;20028;-29
2022/07/04 01:46:47;;;;;;;7.97;3.38;;;;;;;19.49;63.52;100229.38;5089079;28;20032;-29
2022/07/04 01:49:12;;;;;;;5.20;3.00;;;;;;;19.31;63.95;100243.47;5070271;28;20046;-30
2022/07/04 01:51:49;;;;;;;7.28;3.10;;;;;;;19.22;63.77;100241.34;5088422;28;20119;-29
2022/07/04 01:54:15;;;;;;;8.52;3.30;;;;;;;18.93;63.38;100218.66;5070164;28;20027;-30
2022/07/04 01:56:42;;;;;;;5.20;3.10;;;;;;;18.89;64.21;100214.88;5088363;28;20040;-27
2022/07/04 01:59:08;;;;;;;6.87;3.73;;;;;;;18.29;65.60;100201.81;5070090;28;20410;-29
2022/07/04 02:01:34;;;;;;;7.03;3.28;;;;;;;18.46;65.30;100207.78;5087767;28;20345;-27
2022/07/04 02:04:02;;;;;;;6.07;3.45;;;;;;;18.48;65.63;100227.22;5070039;28;20145;-27
2022/07/04 02:06:28;;;;;;;6.65;3.83;;;;;;;18.57;64.60;100224.84;5088805;28;20152;-30
2022/07/04 02:14:22;;;;;;;7.40;3.55;;;;;;;18.90;63.38;100232.69;5088689;28;20043;-30
2022/07/04 02:16:48;;;;;;;8.30;3.78;;;;;;;18.65;64.47;100215.38;5088547;28;20024;-30
2022/07/04 02:19:13;;;;;;;5.28;3.47;;;;;;;18.67;64.65;100224.84;5088078;28;20064;-28
2022/07/04 02:21:38;;;;;;;7.53;3.58;;;;;;;18.80;63.71;100228.94;5087693;28;20027;-29
2022/07/04 02:24:05;;;;;;;8.82;3.40;;;;;;;18.83;63.56;100239.19;5087824;28;20081;-28
2022/07/04 02:26:30;;;;;;;7.13;3.50;;;;;;;18.76;63.63;100237.81;5087619;28;20074;-28
2022/07/04 02:28:56;;;;;;;30.25;6.15;;;;;;;18.56;64.52;100227.78;5087772;28;20036;-27
2022/07/04 02:31:21;;;;;;;7.97;3.92;;;;;;;18.59;65.13;100235.34;5069315;28;20028;-30
2022/07/04 02:33:46;;;;;;;5.55;3.13;;;;;;;18.39;65.35;100234.25;5087856;28;20028;-31
2022/07/04 02:36:12;;;;;;;7.38;3.75;;;;;;;18.51;65.01;100236.72;5087624;28;20024;-29
2022/07/04 02:38:37;;;;;;;6.15;3.42;;;;;;;18.27;65.43;100231.78;5087582;28;20035;-32
2022/07/04 02:41:03;;;;;;;8.38;4.05;;;;;;;18.43;64.31;100235.34;5069012;28;20060;-32
2022/07/04 02:43:28;;;;;;;5.55;3.45;;;;;;;17.92;66.04;100224.38;5087532;28;20423;-31
2022/07/04 02:45:54;;;;;;;8.07;3.50;;;;;;;17.75;67.07;100243.41;5087320;28;20117;-27
2022/07/04 02:48:19;;;;;;;7.95;3.80;;;;;;;18.23;64.65;100246.88;5087621;28;20024;-27
2022/07/04 02:50:45;;;;;;;6.65;3.83;;;;;;;18.34;64.66;100253.13;5069186;28;20024;-29
2022/07/04 02:53:10;;;;;;;10.68;3.70;;;;;;;18.11;65.94;100259.00;5087351;28;20495;-28
2022/07/04 02:55:36;;;;;;;9.35;3.38;;;;;;;17.92;65.56;100256.75;5087208;28;20537;-30
2022/07/04 02:58:01;;;;;;;10.82;3.75;;;;;;;17.75;66.89;100253.38;5087373;28;20028;-28
2022/07/04 03:00:27;;;;;;;6.78;3.75;;;;;;;17.89;65.34;100251.06;5087404;28;20036;-34
2022/07/04 03:02:54;;;;;;;4.60;2.70;;;;;;;18.03;64.71;100250.31;5069134;28;20016;-27
2022/07/04 03:05:20;;;;;;;6.40;3.60;;;;;;;17.85;64.43;100245.38;5068807;28;20028;-27
2022/07/04 03:07:46;;;;;;;5.80;3.10;;;;;;;17.86;64.22;100252.41;5087350;28;20024;-28
2022/07/04 03:10:11;;;;;;;4.88;2.80;;;;;;;17.87;64.24;100259.41;5087022;28;20016;-27
2022/07/04 03:12:37;;;;;;;5.30;3.20;;;;;;;17.63;66.07;100265.22;5086862;28;20126;-31
2022/07/04 03:15:03;;;;;;;5.00;3.05;;;;;;;18.03;64.44;100253.00;5086967;28;20032;-33
2022/07/04 03:17:31;;;;;;;7.82;3.30;;;;;;;18.33;62.93;100259.59;5068740;28;20032;-33
2022/07/04 03:19:57;;;;;;;8.48;3.50;;;;;;;18.30;63.68;100268.22;5069243;28;20031;-28
2022/07/04 03:22:23;;;;;;;6.45;3.28;;;;;;;18.26;62.98;100267.13;5068235;28;20038;-27
2022/07/04 03:24:48;;;;;;;7.70;3.50;;;;;;;18.12;64.26;100260.59;5086536;28;20032;-28
2022/07/04 03:27:14;;;;;;;7.10;3.83;;;;;;;17.88;65.76;100261.06;5086193;28;20410;-30
2022/07/04 03:29:40;;;;;;;10.05;4.00;;;;;;;17.73;67.08;100269.03;5085434;28;20050;-30
2022/07/04 03:32:05;;;;;;;6.32;4.05;;;;;;;17.44;68.46;100242.44;5050516;28;20067;-31
2022/07/04 03:34:31;;;;;;;6.55;3.53;;;;;;;17.54;69.00;100244.38;5067208;28;20032;-29
2022/07/04 03:36:57;;;;;;;6.82;4.05;;;;;;;17.70;68.23;100266.88;5084982;28;20169;-28
2022/07/04 03:39:22;;;;;;;8.35;4.50;;;;;;;17.66;68.50;100264.69;5084944;28;20023;-29
2022/07/04 03:41:48;;;;;;;6.75;3.80;;;;;;;17.83;66.96;100269.09;5085237;28;20134;-28
2022/07/04 03:44:13;;;;;;;7.72;3.72;;;;;;;17.97;66.71;100254.06;5086333;28;20031;-28
2022/07/04 03:46:38;;;;;;;7.32;3.63;;;;;;;18.06;66.15;100260.59;5086821;28;20036;-33
2022/07/04 03:49:04;;;;;;;9.25;3.83;;;;;;;17.93;66.25;100242.19;5086382;28;20020;-29
2022/07/04 03:51:29;;;;;;;7.38;4.07;;;;;;;18.30;65.50;100257.41;5086110;28;20028;-31
2022/07/04 03:53:55;;;;;;;8.23;4.10;;;;;;;18.47;64.12;100262.63;5086031;28;20054;-30
2022/07/04 03:56:20;;;;;;;7.63;4.50;;;;;;;18.33;64.59;100240.72;5085955;28;20028;-29
2022/07/04 03:58:48;;;;;;;11.73;4.45;;;;;;;18.44;64.63;100261.25;5085409;28;20554;-27
2022/07/04 04:01:17;;;;;;;11.02;4.07;;;;;;;18.51;65.11;100252.06;5086217;28;20120;-27
2022/07/04 04:06:26;;;;;;;6.47;3.55;;;;;;;18.79;64.02;100257.00;5086345;28;20461;-28
2022/07/04 04:08:52;;;;;;;6.30;3.40;;;;;;;18.75;63.91;100258.59;5086027;28;20020;-30
2022/07/04 04:11:17;;;;;;;7.65;3.80;;;;;;;18.75;63.67;100236.19;5067769;28;20036;-28
2022/07/04 04:13:43;;;;;;;5.22;3.38;;;;;;;18.99;63.11;100236.50;5086215;28;20024;-28
2022/07/04 04:16:09;;;;;;;9.85;4.35;;;;;;;19.03;63.45;100259.19;5086136;28;20077;-27
2022/07/04 04:18:34;;;;;;;6.25;3.10;;;;;;;19.02;63.79;100255.69;5086057;28;20024;-30
2022/07/04 04:21:00;;;;;;;6.53;3.83;;;;;;;19.10;63.87;100265.13;5085922;28;20089;-31
2022/07/04 04:23:25;;;;;;;8.48;3.42;;;;;;;19.18;63.56;100264.59;5085490;28;20020;-27
2022/07/04 04:25:51;;;;;;;6.75;3.67;;;;;;;19.31;63.66;100254.31;5085963;28;20284;-31
2022/07/04 04:28:16;;;;;;;4.78;3.08;;;;;;;19.36;63.61;100246.19;5086282;28;20028;-28
2022/07/04 04:30:41;;;;;;;8.45;3.60;;;;;;;19.57;63.10;100255.88;5067809;28;20083;-28
2022/07/04 04:33:07;;;;;;;7.05;3.75;;;;;;;19.57;64.11;100264.00;5085783;28;20487;-28
2022/07/04 04:35:32;;;;;;;10.15;4.00;;;;;;;19.68;64.51;100249.38;5086053;28;20032;-32
2022/07/04 04:37:58;;;;;;;8.70;3.97;;;;;;;20.10;63.10;100260.06;5085631;28;20020;-27
2022/07/04 04:40:23;;;;;;;7.15;3.47;;;;;;;20.04;63.83;100243.88;5085858;28;20047;-27
2022/07/04 04:42:49;;;;;;;9.15;4.50;;;;;;;20.19;63.49;100253.00;5085461;28;20499;-29
2022/07/04 04:45:14;;;;;;;7.63;3.78;;;;;;;20.07;64.70;100275.78;5085808;28;20024;-28
2022/07/04 04:47:40;;;;;;;6.13;3.70;;;;;;;20.16;63.08;100275.22;5085495;28;20100;-29
2022/07/04 04:50:11;;;;;;;7.25;3.65;;;;;;;20.39;62.15;100273.75;5067628;28;20464;-30
2022/07/04 04:52:36;;;;;;;7.65;4.28;;;;;;;20.58;60.59;100266.63;5085875;28;20047;-31
2022/07/04 04:55:02;;;;;;;6.40;4.28;;;;;;;20.62;60.83;100240.59;5085783;28;20028;-29
2022/07/04 04:57:27;;;;;;;13.27;4.28;;;;;;;20.64;60.76;100260.09;5085977;28;20085;-28
2022/07/04 04:59:52;;;;;;;7.18;4.00;;;;;;;20.61;60.61;100270.66;5085884;28;20476;-29
2022/07/04 05:02:18;;;;;;;11.57;3.90;;;;;;;20.63;61.58;100260.34;5085686;28;20110;-28
2022/07/04 05:04:43;;;;;;;14.30;4.35;;;;;;;20.95;59.84;100259.06;5067252;28;20644;-28
2022/07/04 05:07:09;;;;;;;7.45;3.85;;;;;;;21.07;60.88;100267.63;5085443;28;20476;-31
2022/07/04 05:09:34;;;;;;;5.68;3.92;;;;;;;21.19;60.34;100259.94;5087863;28;20032;-27
2022/07/04 05:12:00;;;;;;;8.77;4.20;;;;;;;21.41;60.10;100245.06;5089647;28;20020;-32
2022/07/04 05:14:25;;;;;;;9.32;3.80;;;;;;;21.50;58.27;100248.81;5089345;28;20027;-30
2022/07/04 05:16:50;;;;;;;7.10;3.92;;;;;;;21.48;58.46;100250.22;5089306;28;20498;-28
2022/07/04 05:19:16;;;;;;;7.28;3.65;;;;;;;21.57;59.64;100253.91;5089760;28;20482;-28
2022/07/04 05:21:41;;;;;;;7.10;3.65;;;;;;;21.58;58.74;100261.75;5089011;28;20028;-29
2022/07/04 05:24:07;;;;;;;6.40;3.90;;;;;;;21.67;59.30;100254.59;5089521;28;20090;-32
2022/07/04 05:26:32;;;;;;;10.10;3.70;;;;;;;21.89;58.56;100266.06;5089298;28;20039;-30
2022/07/04 05:28:58;;;;;;;6.72;3.60;;;;;;;21.95;58.72;100243.97;5089406;28;20032;-29
2022/07/04 05:31:24;;;;;;;8.50;4.00;;;;;;;22.05;58.24;100246.56;5088879;28;20448;-27
2022/07/04 05:33:56;;;;;;;8.65;3.70;;;;;;;22.21;57.26;100246.34;5089004;28;20028;-29
2022/07/04 05:36:23;;;;;;;9.25;3.83;;;;;;;22.39;57.11;100252.94;5088813;28;20039;-32
2022/07/04 05:38:48;;;;;;;7.95;3.75;;;;;;;22.41;56.12;100245.28;5070721;28;20472;-30
2022/07/04 05:41:14;;;;;;;7.55;3.60;;;;;;;22.63;55.82;100247.41;5088715;28;20093;-27
2022/07/04 05:43:39;;;;;;;8.38;4.00;;;;;;;22.58;54.73;100242.88;5088523;28;20031;-28
2022/07/04 05:46:05;;;;;;;6.65;3.72;;;;;;;22.70;55.56;100257.91;5070299;28;20059;-30
2022/07/04 05:48:30;;;;;;;9.68;4.63;;;;;;;22.74;55.18;100264.38;5088635;28;20081;-32
2022/07/04 05:50:56;;;;;;;10.50;5.45;;;;;;;22.80;54.46;100253.16;5088958;28;20058;-27
2022/07/04 05:53:21;;;;;;;8.93;4.18;;;;;;;22.81;54.84;100238.44;5088825;28;20055;-27
2022/07/04 05:55:47;;;;;;;7.07;4.18;;;;;;;23.09;54.10;100265.75;5088910;28;20701;-32
2022/07/04 05:58:13;;;;;;;8.98;4.63;;;;;;;23.17;54.77;100262.38;5088508;28;20050;-33
2022/07/04 06:00:39;;;;;;;10.98;4.85;;;;;;;23.03;55.12;100245.19;5088346;28;20032;-28
2022/07/04 06:03:05;;;;;;;12.38;4.75;;;;;;;23.09;54.99;100254.06;5088124;28;20028;-29
2022/07/04 06:05:31;;;;;;;11.93;5.20;;;;;;;23.30;54.78;100251.81;5069366;28;20564;-28
2022/07/04 06:07:56;;;;;;;8.40;4.65;;;;;;;23.42;53.27;100246.69;5088273;28;20032;-28
2022/07/04 06:10:22;;;;;;;9.20;4.40;;;;;;;23.51;54.14;100250.31;5088094;28;20039;-32
2022/07/04 06:12:48;;;;;;;10.40;4.60;;;;;;;23.63;52.79;100247.91;5087953;28;20032;-28
2022/07/04 06:15:13;;;;;;;8.25;4.43;;;;;;;23.66;53.97;100247.31;5087840;28;20035;-33
2022/07/04 06:17:39;;;;;;;7.53;4.13;;;;;;;23.64;52.47;100249.53;5087706;28;20028;-29
2022/07/04 06:20:05;;;;;;;8.30;3.67;;;;;;;23.62;51.16;100248.19;5086798;28;20034;-28
2022/07/04 06:22:46;;;;;;;8.40;3.92;;;;;;;23.67;51.47;100239.94;5069404;28;20116;-29
2022/07/04 06:25:14;;;;;;;7.38;3.40;;;;;;;23.83;50.61;100256.81;5069311;28;20024;-32
2022/07/04 06:27:40;;;;;;;5.93;3.60;;;;;;;23.99;49.52;100233.63;5069226;28;20026;-28
2022/07/04 06:30:06;;;;;;;5.88;3.40;;;;;;;24.38;47.66;100245.84;5069402;28;20495;-31
2022/07/04 06:32:45;;;;;;;9.70;4.18;;;;;;;24.40;46.93;100238.16;5068477;28;20036;-29
2022/07/04 06:35:55;;;;;;;7.88;3.53;;;;;;;24.64;46.82;100239.81;5069418;28;20024;-29
2022/07/04 06:37:57;;;;;;;5.53;3.30;;;;;;;24.57;44.75;100244.91;5073239;28;20075;-28
2022/07/04 06:40:23;;;;;;;6.03;3.17;;;;;;;24.39;46.15;100222.91;5067725;28;20071;-29
2022/07/04 06:42:49;;;;;;;8.27;3.75;;;;;;;24.46;46.50;100223.31;5087074;28;20109;-33
2022/07/04 06:45:15;;;;;;;7.40;3.43;;;;;;;24.77;44.84;100241.69;5069388;28;20036;-29
2022/07/04 06:47:41;;;;;;;5.65;3.20;;;;;;;24.78;43.98;100223.41;5087283;28;20051;-28
2022/07/04 06:50:07;;;;;;;8.30;3.63;;;;;;;24.99;47.94;100242.81;5087436;28;20035;-30
2022/07/04 06:52:34;;;;;;;6.03;3.20;;;;;;;25.18;43.13;100240.69;5068716;28;20027;-28
2022/07/04 06:54:59;;;;;;;5.78;3.60;;;;;;;25.31;44.65;100246.38;5087213;28;20024;-32
2022/07/04 06:57:25;;;;;;;5.20;3.00;;;;;;;25.12;43.12;100224.75;5086608;28;20030;-32
2022/07/04 06:59:51;;;;;;;6.93;2.90;;;;;;;25.23;42.38;100237.84;5068457;28;20057;-31
2022/07/04 07:02:16;;;;;;;5.53;3.00;;;;;;;25.11;42.08;100226.69;5087478;28;20032;-29
2022/07/04 07:04:42;;;;;;;6.18;2.88;;;;;;;25.34;42.23;100235.66;5086876;28;20024;-30
2022/07/04 07:07:08;;;;;;;6.97;3.00;;;;;;;25.46;43.09;100224.16;5086944;28;20410;-28
2022/07/04 07:09:35;;;;;;;5.43;3.10;;;;;;;25.88;41.17;100223.81;5068350;28;20113;-28
2022/07/04 07:12:01;;;;;;;6.20;2.70;;;;;;;25.99;41.07;100214.19;5068133;28;20089;-28
2022/07/04 07:14:26;;;;;;;5.45;2.90;;;;;;;26.14;42.01;100219.22;5068520;28;20449;-29
2022/07/04 07:16:51;;;;;;;8.45;2.85;;;;;;;26.36;39.59;100231.94;5086451;28;20040;-29
2022/07/04 07:19:17;;;;;;;6.50;3.10;;;;;;;26.50;41.28;100222.75;5068455;28;20119;-30
2022/07/04 07:21:42;;;;;;;6.05;2.72;;;;;;;26.61;39.66;100222.16;5086580;28;20032;-28
2022/07/04 07:24:08;;;;;;;4.57;2.45;;;;;;;26.61;40.74;100218.63;5086854;28;20020;-28
2022/07/04 07:26:33;;;;;;;5.30;2.75;;;;;;;26.74;41.90;100211.34;5086507;28;20028;-28
2022/07/04 07:28:59;;;;;;;8.13;2.90;;;;;;;27.06;38.83;100218.22;5086898;28;20034;-30
2022/07/04 07:31:24;;;;;;;7.40;2.75;;;;;;;26.86;37.90;100198.63;5086350;28;20043;-29
2022/07/04 07:33:50;;;;;;;6.32;3.00;;;;;;;26.95;38.74;100206.00;5086625;28;20035;-28
2022/07/04 07:36:15;;;;;;;4.35;2.65;;;;;;;27.02;39.83;100200.84;5086254;28;20072;-30
2022/07/04 07:38:41;;;;;;;5.60;2.63;;;;;;;27.20;37.30;100205.13;5086376;28;20027;-31
2022/07/04 07:41:10;;;;;;;6.03;2.60;;;;;;;27.41;38.27;100210.72;5085858;28;20749;-28
2022/07/04 07:43:36;;;;;;;7.38;2.80;;;;;;;27.47;37.50;100210.53;5085795;28;20024;-30
2022/07/04 07:46:05;;;;;;;4.57;2.72;;;;;;;27.79;37.14;100214.56;5084868;28;20060;-33
2022/07/04 07:48:31;;;;;;;7.32;2.92;;;;;;;27.60;35.49;100204.84;5086202;28;20555;-29
2022/07/04 07:50:56;;;;;;;5.55;2.80;;;;;;;27.95;36.41;100212.91;5086218;28;20039;-28
2022/07/04 07:53:21;;;;;;;5.28;2.80;;;;;;;28.08;38.28;100189.09;5083129;28;20034;-30
2022/07/04 07:55:47;;;;;;;4.72;2.67;;;;;;;28.39;37.24;100207.06;5075396;28;20440;-30
2022/07/04 07:58:12;;;;;;;3.83;2.55;;;;;;;28.48;36.73;100190.53;5086146;28;20024;-29
2022/07/04 08:00:38;;;;;;;5.93;2.70;;;;;;;28.41;35.89;100200.13;5067916;28;20028;-28
2022/07/04 08:05:50;;;;;;;4.35;2.20;;;;;;;28.44;36.23;100191.22;5064163;28;20032;-31
2022/07/04 08:08:15;;;;;;;5.38;3.10;;;;;;;28.60;35.83;100196.09;5085768;28;20032;-33
2022/07/04 08:10:41;;;;;;;6.80;2.53;;;;;;;28.76;34.83;100188.84;5086105;28;20032;-33
2022/07/04 08:13:06;;;;;;;8.23;2.50;;;;;;;28.98;36.16;100195.09;5086045;28;20024;-32
2022/07/04 08:15:32;;;;;;;5.22;3.08;;;;;;;28.76;33.89;100177.88;5085657;28;20476;-30
2022/07/04 08:17:58;;;;;;;7.65;3.08;;;;;;;28.70;35.30;100190.19;5067544;28;20028;-30
2022/07/04 08:20:23;;;;;;;7.97;3.20;;;;;;;28.78;35.49;100181.06;5084198;28;20032;-28
2022/07/04 08:22:49;;;;;;;7.90;3.47;;;;;;;28.96;35.31;100189.13;5086133;28;20505;-36
2022/07/04 08:25:14;;;;;;;4.40;2.80;;;;;;;29.07;35.57;100192.22;5085853;28;20024;-28
2022/07/04 08:27:41;;;;;;;6.30;2.97;;;;;;;29.24;38.21;100181.09;5085798;28;20024;-28
2022/07/04 08:30:08;;;;;;;6.70;3.00;;;;;;;29.43;34.23;100172.28;5067420;28;20036;-32
2022/07/04 08:32:33;;;;;;;6.97;2.93;;;;;;;29.76;34.78;100176.84;5083914;28;20035;-28
2022/07/04 08:34:59;;;;;;;5.43;3.10;;;;;;;29.84;34.46;100173.97;5085593;28;20073;-28
2022/07/04 08:37:24;;;;;;;6.43;2.85;;;;;;;29.76;36.41;100163.91;5085349;28;20025;-30
2022/07/04 08:39:50;;;;;;;6.55;2.80;;;;;;;29.73;35.38;100169.28;5085482;28;20028;-30
2022/07/04 08:42:18;;;;;;;5.53;2.90;;;;;;;29.70;33.93;100165.25;5067101;28;20146;-30
2022/07/04 08:44:48;;;;;;;5.78;3.28;;;;;;;30.12;34.46;100169.66;5069898;28;20380;-30
2022/07/04 08:47:19;;;;;;;3.63;2.60;;;;;;;30.30;34.10;100178.47;5089778;28;20028;-30
2022/07/04 08:49:58;;;;;;;4.07;2.65;;;;;;;30.33;31.33;100170.31;5071391;28;20411;-32
2022/07/04 08:52:40;;;;;;;4.72;2.40;;;;;;;30.52;31.52;100183.41;5071466;28;20690;-29
2022/07/04 09:00:41;;;;;;;7.00;2.70;;;;;;;30.83;28.10;100177.19;5089718;28;20561;-29
2022/07/04 09:03:07;;;;;;;5.13;2.53;;;;;;;31.01;31.51;100166.66;5071608;28;20028;-32
2022/07/04 09:05:34;;;;;;;4.38;2.90;;;;;;;31.24;28.89;100177.03;5070927;28;20093;-31
2022/07/04 09:08:00;;;;;;;4.55;2.38;;;;;;;31.06;26.72;100168.34;5071354;28;20020;-29
2022/07/04 09:10:26;;;;;;;4.43;2.35;;;;;;;30.96;28.95;100163.38;5053846;28;20043;-31
2022/07/04 09:12:52;;;;;;;4.05;2.30;;;;;;;31.33;29.21;100154.84;5089186;28;20031;-30
2022/07/04 09:15:18;;;;;;;5.93;2.20;;;;;;;31.68;27.87;100143.84;5070876;28;20036;-30
2022/07/04 09:17:44;;;;;;;3.70;2.28;;;;;;;31.83;26.43;100172.53;5071301;28;20033;-28
2022/07/04 09:20:14;;;;;;;3.35;2.03;;;;;;;31.93;25.43;100160.16;5089171;28;20077;-29
2022/07/04 09:22:40;;;;;;;4.30;2.17;;;;;;;31.95;25.08;100149.56;5070700;28;20048;-29
2022/07/04 09:25:06;;;;;;;6.35;2.35;;;;;;;32.00;28.10;100152.84;5088992;28;20177;-29
2022/07/04 09:27:35;;;;;;;4.10;2.15;;;;;;;32.35;28.05;100151.97;5070120;28;20024;-34
2022/07/04 09:30:01;;;;;;;16.27;9.48;;;;;;;32.54;26.47;100156.69;5067442;28;20035;-28
2022/07/04 09:32:39;;;;;;;5.32;2.92;;;;;;;32.96;25.39;100153.13;5061864;28;20035;-29
2022/07/04 09:35:13;;;;;;;3.55;2.40;;;;;;;32.89;25.14;100146.66;5069956;28;20040;-31
2022/07/04 09:37:41;;;;;;;4.60;2.53;;;;;;;32.99;24.43;100157.09;5069460;28;20028;-33
2022/07/04 09:40:10;;;;;;;6.93;2.58;;;;;;;32.92;27.58;100145.94;5087748;28;20040;-29
2022/07/04 09:42:41;;;;;;;4.65;2.50;;;;;;;33.07;26.37;100145.00;5070242;28;20411;-30
2022/07/04 09:45:10;;;;;;;5.35;2.63;;;;;;;32.98;25.35;100141.72;5088639;28;20127;-31
2022/07/04 09:47:37;;;;;;;3.08;2.20;;;;;;;33.13;25.17;100143.56;5088109;28;20472;-28
2022/07/04 09:50:06;;;;;;;3.33;2.30;;;;;;;33.38;25.25;100148.66;5070080;28;20036;-32
2022/07/04 09:52:32;;;;;;;3.95;2.80;;;;;;;33.71;25.06;100133.38;5087951;28;20032;-29
2022/07/04 09:55:05;;;;;;;3.67;2.20;;;;;;;33.88;24.58;100143.06;5085861;28;20035;-33
2022/07/04 09:57:31;;;;;;;5.55;2.30;;;;;;;33.89;24.15;100134.41;5069779;28;20028;-28
2022/07/04 10:00:17;;;;;;;5.73;2.60;;;;;;;34.22;24.76;100136.44;5088423;28;20031;-29
2022/07/04 10:02:43;;;;;;;3.85;2.10;;;;;;;33.94;24.18;100142.38;5088209;28;20032;-33
2022/07/04 10:05:08;;;;;;;5.90;2.47;;;;;;;33.35;25.57;100116.25;5069618;28;20060;-29
2022/07/04 10:07:45;;;;;;;4.85;2.60;;;;;;;33.98;25.46;100121.09;5088017;28;20083;-33
2022/07/04 10:10:25;;;;;;;5.70;2.10;;;;;;;34.05;25.41;100120.38;5088272;28;20101;-31
2022/07/04 10:12:53;;;;;;;5.70;2.25;;;;;;;33.76;27.23;100108.97;5088031;28;20059;-32
2022/07/04 10:15:19;;;;;;;5.65;2.33;;;;;;;34.28;24.21;100134.09;5087062;28;20027;-32
2022/07/04 10:17:45;;;;;;;4.13;2.38;;;;;;;34.35;24.37;100141.72;5087998;28;20032;-32
2022/07/04 10:20:12;;;;;;;4.22;2.33;;;;;;;34.46;24.06;100128.75;5086798;28;20032;-29
2022/07/04 10:22:37;;;;;;;4.32;2.70;;;;;;;34.16;26.19;100126.06;5087815;28;20028;-31
2022/07/04 10:25:05;;;;;;;5.10;2.53;;;;;;;34.09;24.19;100112.91;5087894;28;20042;-29
2022/07/04 10:27:30;;;;;;;;;;;;;;;34.57;20.20;100128.84;5069735;28;20122;-32
2022/07/04 10:29:57;;;;;;;5.93;1.87;;;;;;;34.15;19.23;100130.81;5086223;28;20426;-29
2022/07/04 10:32:24;;;;;;;4.97;1.80;;;;;;;34.42;19.81;100128.72;5069621;28;20028;-30
2022/07/04 10:34:49;;;;;;;3.30;1.63;;;;;;;34.23;17.53;100117.84;5069396;28;20114;-34
2022/07/04 10:37:16;;;;;;;5.85;2.20;;;;;;;34.63;18.45;100116.25;5086183;28;20484;-34
2022/07/04 10:39:41;;;;;;;4.18;1.63;;;;;;;34.63;17.61;100116.25;5087377;28;20051;-31
2022/07/04 10:42:07;;;;;;;7.65;1.88;;;;;;;34.27;16.79;100121.44;5087583;28;20095;-29
2022/07/04 10:44:38;;;;;;;2.63;1.65;;;;;;;34.34;17.55;100104.91;5068842;28;20038;-29
2022/07/04 10:47:05;;;;;;;4.22;2.03;;;;;;;34.69;17.22;100111.22;5086228;28;20028;-32
2022/07/04 10:49:31;;;;;;;4.38;1.70;;;;;;;34.73;18.12;100115.59;5068753;28;20028;-29
2022/07/04 10:52:13;;;;;;;1.52;1.23;;;;;;;34.79;17.52;100097.44;5068548;28;20085;-29
2022/07/04 10:54:41;;;;;;;4.53;1.60;;;;;;;34.73;16.29;100098.19;5068689;28;20404;-31
2022/07/04 10:57:10;;;;;;;3.88;1.40;;;;;;;35.29;16.48;100110.09;5086877;28;20077;-32
2022/07/04 10:59:35;;;;;;;2.60;1.70;;;;;;;35.00;16.67;100093.25;5086928;28;20036;-29
2022/07/04 11:02:04;;;;;;;2.75;1.20;;;;;;;35.12;16.68;100104.03;5087233;28;20043;-33
2022/07/04 11:04:52;;;;;;;2.75;1.40;;;;;;;35.31;15.99;100099.44;5086945;28;20024;-31
2022/07/04 11:07:30;;;;;;;4.85;1.40;;;;;;;34.83;16.19;100080.84;5067950;28;20038;-29
2022/07/04 11:10:33;;;;;;;8.27;4.35;;;;;;;35.56;17.07;100096.81;5087344;28;20028;-30
2022/07/04 11:13:00;;;;;;;7.25;4.47;;;;;;;35.77;16.06;100098.91;5086279;28;20040;-30
2022/07/04 11:15:28;;;;;;;2.50;1.40;;;;;;;35.46;15.50;100090.03;5067978;28;20043;-32
2022/07/04 11:18:02;;;;;;;2.70;1.50;;;;;;;35.71;16.15;100067.19;5086534;28;20120;-36
2022/07/04 11:20:30;;;;;;;2.15;1.65;;;;;;;35.54;16.03;100077.78;5086903;28;20032;-30
2022/07/04 11:23:05;;;;;;;3.38;1.70;;;;;;;36.00;15.76;100082.75;5068260;28;20573;-32
2022/07/04 11:25:31;;;;;;;5.32;1.67;;;;;;;35.58;17.20;100092.47;5086229;28;20024;-32
2022/07/04 11:27:56;;;;;;;2.88;1.42;;;;;;;35.48;16.36;100070.22;5086076;28;20028;-30
2022/07/04 11:30:22;;;;;;;2.53;1.50;;;;;;;35.43;14.89;100079.69;5068111;28;20556;-33
2022/07/04 11:32:47;;;;;;;2.70;1.40;;;;;;;36.20;14.45;100080.44;5085272;28;20032;-29
2022/07/04 11:35:13;;;;;;;2.22;1.45;;;;;;;35.88;15.27;100065.66;5068116;28;20034;-35
2022/07/04 11:37:38;;;;;;;2.45;1.27;;;;;;;35.36;13.47;100063.03;5086323;28;20032;-29
2022/07/04 11:45:53;;;;;;;3.38;1.65;;;;;;;35.57;13.98;100063.16;5086565;28;20048;-29